Flight Track Log - Related Links

Times and Time Zones

All times are in EDT time to prevent confusion due to time zone crossing. See the AFL150 flight status page for this flight to view local times or setup timezone preferences in your user account.

Time Position Orientation Groundspeed Altitude Reporting Facility
EDT Latitude Longitude Course Direction KTS MPH feet Rate Location/Type
Thu 05:37:00 AM 56.2369 37.0066 318° Northwest  Level FlightAware Approximate
Thu 05:38:00 AM 56.3224 36.8651 317° Northwest  Level FlightAware Approximate
Thu 05:39:00 AM 56.4077 36.7230 317° Northwest  Level FlightAware Approximate
Thu 05:40:00 AM 56.4929 36.5802 317° Northwest  Level FlightAware Approximate
Thu 05:41:00 AM 56.5779 36.4367 317° Northwest  Level FlightAware Approximate
Thu 05:42:00 AM 56.6627 36.2927 317° Northwest  Level FlightAware Approximate
Thu 05:43:00 AM 56.7474 36.1480 317° Northwest  Level FlightAware Approximate
Thu 05:44:00 AM 56.8319 36.0026 317° Northwest  Level FlightAware Approximate
Thu 05:45:00 AM 56.9163 35.8565 317° Northwest  Level FlightAware Approximate
Thu 05:46:00 AM 57.0004 35.7099 317° Northwest  Level FlightAware Approximate
Thu 05:47:00 AM 57.0844 35.5625 316° Northwest  Level FlightAware Approximate
Thu 05:48:00 AM 57.1682 35.4145 316° Northwest  Level FlightAware Approximate
Thu 05:49:00 AM 57.2519 35.2658 316° Northwest  Level FlightAware Approximate
Thu 05:50:00 AM 57.3354 35.1164 316° Northwest  Level FlightAware Approximate
Thu 05:51:00 AM 57.4186 34.9664 316° Northwest  Level FlightAware Approximate
Thu 05:52:00 AM 57.5018 34.8156 316° Northwest  Level FlightAware Approximate
Thu 05:53:00 AM 57.5847 34.6642 316° Northwest  Level FlightAware Approximate
Thu 05:54:00 AM 57.6066 34.6208 313° West  Level FlightAware Approximate
Thu 05:55:00 AM 57.6862 34.4628 313° West  Level FlightAware Approximate
Thu 05:56:00 AM 57.7656 34.3042 313° West  Level FlightAware Approximate
Thu 05:57:00 AM 57.8448 34.1449 313° West  Level FlightAware Approximate
Thu 05:58:00 AM 57.9238 33.9848 313° West  Level FlightAware Approximate
Thu 05:59:00 AM 58.0027 33.8241 313° West  Level FlightAware Approximate
Thu 06:00:00 AM 58.0813 33.6627 313° West  Level FlightAware Approximate
Thu 06:01:00 AM 58.1597 33.5005 313° West  Level FlightAware Approximate
Thu 06:02:00 AM 58.2384 33.3385 313° West  Level FlightAware Approximate
Thu 06:03:00 AM 58.3174 33.1768 313° West  Level FlightAware Approximate
Thu 06:04:00 AM 58.3962 33.0143 313° West  Level FlightAware Approximate
Thu 06:05:00 AM 58.4748 32.8510 313° West  Level FlightAware Approximate
Thu 06:06:00 AM 58.5533 32.6871 313° West  Level FlightAware Approximate
Thu 06:07:00 AM 58.6315 32.5224 312° West  Level FlightAware Approximate
Thu 06:08:00 AM 58.7095 32.3570 312° West  Level FlightAware Approximate
Thu 06:09:00 AM 58.7872 32.1908 312° West  Level FlightAware Approximate
Thu 06:10:00 AM 58.8648 32.0239 312° West  Level FlightAware Approximate
Thu 06:11:00 AM 58.9421 31.8562 312° West  Level FlightAware Approximate
Thu 06:12:00 AM 59.0193 31.6878 312° West  Level FlightAware Approximate
Thu 06:13:00 AM 59.0962 31.5186 312° West  Level FlightAware Approximate
Thu 06:14:00 AM 59.1729 31.3487 311° West  Level FlightAware Approximate
Thu 06:15:00 AM 59.2493 31.1780 311° West  Level FlightAware Approximate
Thu 06:16:00 AM 59.3256 31.0065 311° West  Level FlightAware Approximate
Thu 06:17:00 AM 59.4016 30.8343 311° West  Level FlightAware Approximate
Thu 06:18:00 AM 59.4766 30.6600 310° West  Level FlightAware Approximate
Thu 06:19:00 AM 59.5512 30.4846 310° West  Level FlightAware Approximate
Thu 06:20:00 AM 59.6255 30.3084 310° West  Level FlightAware Approximate
Thu 06:21:00 AM 59.6996 30.1314 310° West  Level FlightAware Approximate
Thu 06:22:00 AM 59.7735 29.9537 310° West  Level FlightAware Approximate
Thu 06:23:00 AM 59.8471 29.7752 309° West  Level FlightAware Approximate
Thu 06:24:00 AM 59.9205 29.5958 309° West  Level FlightAware Approximate
Thu 06:25:00 AM 59.9936 29.4157 309° West  Level FlightAware Approximate
Thu 06:26:00 AM 60.0670 29.2355 309° West  Level FlightAware Approximate
Thu 06:27:00 AM 60.1401 29.0546 309° West  Level FlightAware Approximate
Thu 06:28:00 AM 60.2131 28.8729 309° West  Level FlightAware Approximate
Thu 06:29:00 AM 60.2857 28.6904 309° West  Level FlightAware Approximate
Thu 06:30:00 AM 60.3581 28.5071 309° West  Level FlightAware Approximate
Thu 06:31:00 AM 60.4303 28.3230 308° West  Level FlightAware Approximate
Thu 06:32:00 AM 60.5022 28.1380 308° West  Level FlightAware Approximate
Thu 06:33:00 AM 60.5738 27.9522 308° West  Level FlightAware Approximate
Thu 06:34:00 AM 60.6452 27.7656 308° West  Level FlightAware Approximate
Thu 06:35:00 AM 60.7163 27.5782 308° West  Level FlightAware Approximate
Thu 06:36:00 AM 60.7872 27.3899 308° West  Level FlightAware Approximate
Thu 06:37:00 AM 60.8577 27.2008 308° West  Level FlightAware Approximate
Thu 06:38:00 AM 60.9281 27.0109 307° West  Level FlightAware Approximate
Thu 06:39:00 AM 60.9981 26.8202 307° West  Level FlightAware Approximate
Thu 06:40:00 AM 61.0679 26.6285 307° West  Level FlightAware Approximate
Thu 06:41:00 AM 61.1374 26.4361 307° West  Level FlightAware Approximate
Thu 06:42:00 AM 61.2067 26.2428 307° West  Level FlightAware Approximate
Thu 06:43:00 AM 61.2756 26.0487 307° West  Level FlightAware Approximate
Thu 06:44:00 AM 61.3443 25.8536 306° West  Level FlightAware Approximate
Thu 06:45:00 AM 61.4127 25.6578 306° West  Level FlightAware Approximate
Thu 06:46:00 AM 61.4808 25.4611 306° West  Level FlightAware Approximate
Thu 06:47:00 AM 61.5487 25.2635 306° West  Level FlightAware Approximate
Thu 06:48:00 AM 61.6162 25.0651 306° West  Level FlightAware Approximate
Thu 06:49:00 AM 61.6835 24.8657 305° West  Level FlightAware Approximate
Thu 06:50:00 AM 61.7505 24.6656 305° West  Level FlightAware Approximate
Thu 06:51:00 AM 61.8171 24.4645 305° West  Level FlightAware Approximate
Thu 06:52:00 AM 61.8835 24.2626 305° West  Level FlightAware Approximate
Thu 06:53:00 AM 61.9496 24.0598 305° West  Level FlightAware Approximate
Thu 06:54:00 AM 62.0154 23.8561 305° West  Level FlightAware Approximate
Thu 06:55:00 AM 62.0809 23.6516 304° West  Level FlightAware Approximate
Thu 06:56:00 AM 62.1460 23.4461 304° West  Level FlightAware Approximate
Thu 06:57:00 AM 62.2109 23.2398 304° West  Level FlightAware Approximate
Thu 06:58:00 AM 62.2755 23.0326 304° West  Level FlightAware Approximate
Thu 06:59:00 AM 62.3397 22.8245 304° West  Level FlightAware Approximate
Thu 07:00:00 AM 62.4037 22.6155 304° West  Level FlightAware Approximate
Thu 07:01:00 AM 62.4673 22.4057 303° West  Level FlightAware Approximate
Thu 07:02:00 AM 62.5306 22.1949 303° West  Level FlightAware Approximate
Thu 07:03:00 AM 62.5936 21.9832 303° West  Level FlightAware Approximate
Thu 07:04:00 AM 62.6563 21.7707 303° West  Level FlightAware Approximate
Thu 07:05:00 AM 62.7187 21.5572 303° West  Level FlightAware Approximate
Thu 07:06:00 AM 62.7807 21.3428 302° West  Level FlightAware Approximate
Thu 07:07:00 AM 62.8424 21.1276 302° West  Level FlightAware Approximate
Thu 07:08:00 AM 62.9038 20.9114 302° West  Level FlightAware Approximate
Thu 07:09:00 AM 62.9648 20.6943 302° West  Level FlightAware Approximate
Thu 07:10:00 AM 63.0255 20.4764 302° West  Level FlightAware Approximate
Thu 07:11:00 AM 63.0859 20.2575 301° West  Level FlightAware Approximate
Thu 07:12:00 AM 63.1459 20.0377 301° West  Level FlightAware Approximate
Thu 07:13:00 AM 63.2056 19.8170 301° West  Level FlightAware Approximate
Thu 07:14:00 AM 63.2649 19.5954 301° West  Level FlightAware Approximate
Thu 07:15:00 AM 63.3239 19.3728 301° West  Level FlightAware Approximate
Thu 07:16:00 AM 63.3826 19.1494 300° West  Level FlightAware Approximate
Thu 07:17:00 AM 63.4409 18.9251 300° West  Level FlightAware Approximate
Thu 07:18:00 AM 63.4988 18.6998 300° West  Level FlightAware Approximate
Thu 07:19:00 AM 63.5564 18.4736 300° West  Level FlightAware Approximate
Thu 07:20:00 AM 63.6136 18.2465 300° West  Level FlightAware Approximate
Thu 07:21:00 AM 63.6705 18.0186 299° West  Level FlightAware Approximate
Thu 07:22:00 AM 63.7270 17.7896 299° West  Level FlightAware Approximate
Thu 07:23:00 AM 63.7832 17.5598 299° West  Level FlightAware Approximate
Thu 07:24:00 AM 63.8389 17.3291 299° West  Level FlightAware Approximate
Thu 07:25:00 AM 63.8943 17.0974 299° West  Level FlightAware Approximate
Thu 07:26:00 AM 63.9494 16.8649 298° West  Level FlightAware Approximate
Thu 07:27:00 AM 64.0041 16.6314 298° West  Level FlightAware Approximate
Thu 07:28:00 AM 64.0583 16.3970 298° West  Level FlightAware Approximate
Thu 07:29:00 AM 64.1123 16.1617 298° West  Level FlightAware Approximate
Thu 07:30:00 AM 64.1658 15.9255 298° West  Level FlightAware Approximate
Thu 07:31:00 AM 64.2189 15.6884 297° West  Level FlightAware Approximate
Thu 07:32:00 AM 64.2717 15.4503 297° West  Level FlightAware Approximate
Thu 07:33:00 AM 64.3241 15.2114 297° West  Level FlightAware Approximate
Thu 07:34:00 AM 64.3760 14.9715 297° West  Level FlightAware Approximate
Thu 07:35:00 AM 64.4276 14.7308 296° West  Level FlightAware Approximate
Thu 07:36:00 AM 64.4788 14.4891 296° West  Level FlightAware Approximate
Thu 07:37:00 AM 64.5296 14.2466 296° West  Level FlightAware Approximate
Thu 07:38:00 AM 64.5800 14.0031 296° West  Level FlightAware Approximate
Thu 07:39:00 AM 64.6300 13.7587 296° West  Level FlightAware Approximate
Thu 07:40:00 AM 64.6796 13.5135 295° West  Level FlightAware Approximate
Thu 07:41:00 AM 64.7288 13.2673 295° West  Level FlightAware Approximate
Thu 07:42:00 AM 64.7775 13.0203 295° West  Level FlightAware Approximate
Thu 07:43:00 AM 64.8259 12.7724 295° West  Level FlightAware Approximate
Thu 07:44:00 AM 64.8738 12.5235 295° West  Level FlightAware Approximate
Thu 07:45:00 AM 64.9214 12.2738 294° West  Level FlightAware Approximate
Thu 07:46:00 AM 64.9685 12.0232 294° West  Level FlightAware Approximate
Thu 07:47:00 AM 65.0152 11.7718 294° West  Level FlightAware Approximate
Thu 07:48:00 AM 65.0614 11.5194 294° West  Level FlightAware Approximate
Thu 07:49:00 AM 65.1073 11.2662 293° West  Level FlightAware Approximate
Thu 07:50:00 AM 65.1527 11.0121 293° West  Level FlightAware Approximate
Thu 07:51:00 AM 65.1976 10.7571 293° West  Level FlightAware Approximate
Thu 07:52:00 AM 65.2422 10.5013 293° West  Level FlightAware Approximate
Thu 07:53:00 AM 65.2863 10.2446 292° West  Level FlightAware Approximate
Thu 07:54:00 AM 65.3300 9.9871 292° West  Level FlightAware Approximate
Thu 07:55:00 AM 65.3732 9.7287 292° West  Level FlightAware Approximate
Thu 07:56:00 AM 65.4160 9.4695 292° West  Level FlightAware Approximate
Thu 07:57:00 AM 65.4583 9.2094 292° West  Level FlightAware Approximate
Thu 07:58:00 AM 65.5002 8.9485 291° West  Level FlightAware Approximate
Thu 07:59:00 AM 65.5416 8.6867 291° West  Level FlightAware Approximate
Thu 08:00:00 AM 65.5826 8.4241 291° West  Level FlightAware Approximate
Thu 08:01:00 AM 65.6232 8.1607 291° West  Level FlightAware Approximate
Thu 08:02:00 AM 65.6633 7.8965 290° West  Level FlightAware Approximate
Thu 08:03:00 AM 65.7029 7.6315 290° West  Level FlightAware Approximate
Thu 08:04:00 AM 65.7420 7.3656 290° West  Level FlightAware Approximate
Thu 08:05:00 AM 65.7807 7.0989 290° West  Level FlightAware Approximate
Thu 08:06:00 AM 65.8190 6.8315 289° West  Level FlightAware Approximate
Thu 08:07:00 AM 65.8567 6.5633 289° West  Level FlightAware Approximate
Thu 08:08:00 AM 65.8940 6.2942 289° West  Level FlightAware Approximate
Thu 08:09:00 AM 65.9308 6.0244 289° West  Level FlightAware Approximate
Thu 08:10:00 AM 65.9672 5.7538 288° West  Level FlightAware Approximate
Thu 08:11:00 AM 66.0031 5.4825 288° West  Level FlightAware Approximate
Thu 08:12:00 AM 66.0384 5.2104 288° West  Level FlightAware Approximate
Thu 08:13:00 AM 66.0733 4.9376 288° West  Level FlightAware Approximate
Thu 08:14:00 AM 66.1078 4.6639 287° West  Level FlightAware Approximate
Thu 08:15:00 AM 66.1417 4.3896 287° West  Level FlightAware Approximate
Thu 08:16:00 AM 66.1752 4.1145 287° West  Level FlightAware Approximate
Thu 08:17:00 AM 66.2081 3.8387 287° West  Level FlightAware Approximate
Thu 08:18:00 AM 66.2406 3.5622 286° West  Level FlightAware Approximate
Thu 08:19:00 AM 66.2726 3.2850 286° West  Level FlightAware Approximate
Thu 08:20:00 AM 66.3041 3.0071 286° West  Level FlightAware Approximate
Thu 08:21:00 AM 66.3351 2.7285 286° West  Level FlightAware Approximate
Thu 08:22:00 AM 66.3655 2.4492 285° West  Level FlightAware Approximate
Thu 08:23:00 AM 66.3955 2.1693 285° West  Level FlightAware Approximate
Thu 08:24:00 AM 66.4250 1.8886 285° West  Level FlightAware Approximate
Thu 08:25:00 AM 66.4540 1.6073 285° West  Level FlightAware Approximate
Thu 08:26:00 AM 66.4825 1.3254 284° West  Level FlightAware Approximate
Thu 08:27:00 AM 66.5104 1.0428 284° West  Level FlightAware Approximate
Thu 08:28:00 AM 66.5379 0.7596 284° West  Level FlightAware Approximate
Thu 08:29:00 AM 66.5648 0.4758 284° West  Level FlightAware Approximate
Thu 08:30:00 AM 66.5912 0.1914 283° West  Level FlightAware Approximate
Thu 08:31:00 AM 66.6171 -0.0936 283° West  Level FlightAware Approximate
Thu 08:32:00 AM 66.6425 -0.3793 283° West  Level FlightAware Approximate
Thu 08:33:00 AM 66.6674 -0.6655 283° West  Level FlightAware Approximate
Thu 08:34:00 AM 66.6918 -0.9522 282° West  Level FlightAware Approximate
Thu 08:35:00 AM 66.7156 -1.2396 282° West  Level FlightAware Approximate
Thu 08:36:00 AM 66.7389 -1.5275 282° West  Level FlightAware Approximate
Thu 08:37:00 AM 66.7617 -1.8159 281° West  Level FlightAware Approximate
Thu 08:38:00 AM 66.7839 -2.1048 281° West  Level FlightAware Approximate
Thu 08:39:00 AM 66.8056 -2.3943 281° West  Level FlightAware Approximate
Thu 08:40:00 AM 66.8268 -2.6843 281° West  Level FlightAware Approximate
Thu 08:41:00 AM 66.8475 -2.9748 280° West  Level FlightAware Approximate
Thu 08:42:00 AM 66.8676 -3.2657 280° West  Level FlightAware Approximate
Thu 08:43:00 AM 66.8872 -3.5571 280° West  Level FlightAware Approximate
Thu 08:44:00 AM 66.9063 -3.8490 280° West  Level FlightAware Approximate
Thu 08:45:00 AM 66.9248 -4.1414 279° West  Level FlightAware Approximate
Thu 08:46:00 AM 66.9428 -4.4342 279° West  Level FlightAware Approximate
Thu 08:47:00 AM 66.9602 -4.7274 279° West  Level FlightAware Approximate
Thu 08:48:00 AM 66.9771 -5.0210 279° West  Level FlightAware Approximate
Thu 08:49:00 AM 66.9935 -5.3150 278° West  Level FlightAware Approximate
Thu 08:50:00 AM 67.0093 -5.6094 278° West  Level FlightAware Approximate
Thu 08:51:00 AM 67.0246 -5.9042 278° West  Level FlightAware Approximate
Thu 08:52:00 AM 67.0393 -6.1993 277° West  Level FlightAware Approximate
Thu 08:53:00 AM 67.0535 -6.4948 277° West  Level FlightAware Approximate
Thu 08:54:00 AM 67.0671 -6.7906 277° West  Level FlightAware Approximate
Thu 08:55:00 AM 67.0802 -7.0868 277° West  Level FlightAware Approximate
Thu 08:56:00 AM 67.0927 -7.3833 276° West  Level FlightAware Approximate
Thu 08:57:00 AM 67.1047 -7.6801 276° West  Level FlightAware Approximate
Thu 08:58:00 AM 67.1161 -7.9771 276° West  Level FlightAware Approximate
Thu 08:59:00 AM 67.1270 -8.2745 276° West  Level FlightAware Approximate
Thu 09:00:00 AM 67.1373 -8.5721 275° West  Level FlightAware Approximate
Thu 09:01:00 AM 67.1471 -8.8699 275° West  Level FlightAware Approximate
Thu 09:02:00 AM 67.1563 -9.1680 275° West  Level FlightAware Approximate
Thu 09:03:00 AM 67.1649 -9.4663 274° West  Level FlightAware Approximate
Thu 09:04:00 AM 67.1730 -9.7648 274° West  Level FlightAware Approximate
Thu 09:05:00 AM 67.1806 -10.0635 274° West  Level FlightAware Approximate
Thu 09:06:00 AM 67.1876 -10.3624 274° West  Level FlightAware Approximate
Thu 09:07:00 AM 67.1940 -10.6614 273° West  Level FlightAware Approximate
Thu 09:08:00 AM 67.1999 -10.9606 273° West  Level FlightAware Approximate
Thu 09:09:00 AM 67.2052 -11.2600 273° West  Level FlightAware Approximate
Thu 09:10:00 AM 67.2100 -11.5594 272° West  Level FlightAware Approximate
Thu 09:11:00 AM 67.2142 -11.8590 272° West  Level FlightAware Approximate
Thu 09:12:00 AM 67.2178 -12.1587 272° West  Level FlightAware Approximate
Thu 09:13:00 AM 67.2209 -12.4585 272° West  Level FlightAware Approximate
Thu 09:14:00 AM 67.2234 -12.7583 271° West  Level FlightAware Approximate
Thu 09:15:00 AM 67.2254 -13.0582 271° West  Level FlightAware Approximate
Thu 09:16:00 AM 67.2268 -13.3581 271° West  Level FlightAware Approximate
Thu 09:17:00 AM 67.2276 -13.6580 271° West  Level FlightAware Approximate
Thu 09:18:00 AM 67.2279 -13.9580 270° West  Level FlightAware Approximate
Thu 09:19:00 AM 67.2276 -14.2580 270° West  Level FlightAware Approximate
Thu 09:20:00 AM 67.2268 -14.5579 270° West  Level FlightAware Approximate
Thu 09:21:00 AM 67.2253 -14.8579 269° West  Level FlightAware Approximate
Thu 09:22:00 AM 67.2234 -15.1577 269° West  Level FlightAware Approximate
Thu 09:23:00 AM 67.2209 -15.4576 269° West  Level FlightAware Approximate
Thu 09:24:00 AM 67.2178 -15.7573 269° West  Level FlightAware Approximate
Thu 09:25:00 AM 67.2141 -16.0570 268° West  Level FlightAware Approximate
Thu 09:26:00 AM 67.2099 -16.3566 268° West  Level FlightAware Approximate
Thu 09:27:00 AM 67.2052 -16.6560 268° West  Level FlightAware Approximate
Thu 09:28:00 AM 67.1998 -16.9554 268° West  Level FlightAware Approximate
Thu 09:29:00 AM 67.1940 -17.2546 267° West  Level FlightAware Approximate
Thu 09:30:00 AM 67.1875 -17.5536 267° West  Level FlightAware Approximate
Thu 09:31:00 AM 67.1805 -17.8525 267° West  Level FlightAware Approximate
Thu 09:32:00 AM 67.1730 -18.1512 266° West  Level FlightAware Approximate
Thu 09:33:00 AM 67.1649 -18.4497 266° West  Level FlightAware Approximate
Thu 09:34:00 AM 67.1562 -18.7480 266° West  Level FlightAware Approximate
Thu 09:35:00 AM 67.1470 -19.0461 266° West  Level FlightAware Approximate
Thu 09:36:00 AM 67.1372 -19.3439 265° West  Level FlightAware Approximate
Thu 09:37:00 AM 67.1269 -19.6415 265° West  Level FlightAware Approximate
Thu 09:38:00 AM 67.1160 -19.9389 265° West  Level FlightAware Approximate
Thu 09:39:00 AM 67.1046 -20.2359 264° West  Level FlightAware Approximate
Thu 09:40:00 AM 67.0926 -20.5327 264° West  Level FlightAware Approximate
Thu 09:41:00 AM 67.0800 -20.8292 264° West  Level FlightAware Approximate
Thu 09:42:00 AM 67.0670 -21.1253 264° West  Level FlightAware Approximate
Thu 09:43:00 AM 67.0533 -21.4212 263° West  Level FlightAware Approximate
Thu 09:44:00 AM 67.0391 -21.7167 263° West  Level FlightAware Approximate
Thu 09:45:00 AM 67.0244 -22.0118 263° West  Level FlightAware Approximate
Thu 09:46:00 AM 67.0091 -22.3066 263° West  Level FlightAware Approximate
Thu 09:47:00 AM 66.9933 -22.6010 262° West  Level FlightAware Approximate
Thu 09:48:00 AM 66.9770 -22.8950 262° West  Level FlightAware Approximate
Thu 09:49:00 AM 66.9601 -23.1886 262° West  Level FlightAware Approximate
Thu 09:50:00 AM 66.9426 -23.4818 261° West  Level FlightAware Approximate
Thu 09:51:00 AM 66.9246 -23.7746 261° West  Level FlightAware Approximate
Thu 09:52:00 AM 66.9061 -24.0669 261° West  Level FlightAware Approximate
Thu 09:53:00 AM 66.8870 -24.3588 261° West  Level FlightAware Approximate
Thu 09:54:00 AM 66.8674 -24.6502 260° West  Level FlightAware Approximate
Thu 09:55:00 AM 66.8473 -24.9412 260° West  Level FlightAware Approximate
Thu 09:56:00 AM 66.8266 -25.2316 260° West  Level FlightAware Approximate
Thu 09:57:00 AM 66.8054 -25.5216 260° West  Level FlightAware Approximate
Thu 09:58:00 AM 66.7837 -25.8111 259° West  Level FlightAware Approximate
Thu 09:59:00 AM 66.7615 -26.1000 259° West  Level FlightAware Approximate
Thu 10:00:00 AM 66.7387 -26.3884 259° West  Level FlightAware Approximate
Thu 10:01:00 AM 66.7154 -26.6763 259° West  Level FlightAware Approximate
Thu 10:02:00 AM 66.6915 -26.9636 258° West  Level FlightAware Approximate
Thu 10:03:00 AM 66.6672 -27.2504 258° West  Level FlightAware Approximate
Thu 10:04:00 AM 66.6423 -27.5366 258° West  Level FlightAware Approximate
Thu 10:05:00 AM 66.6169 -27.8222 257° West  Level FlightAware Approximate
Thu 10:06:00 AM 66.5910 -28.1073 257° West  Level FlightAware Approximate
Thu 10:07:00 AM 66.5646 -28.3917 257° West  Level FlightAware Approximate
Thu 10:08:00 AM 66.5376 -28.6755 257° West  Level FlightAware Approximate
Thu 10:09:00 AM 66.5101 -28.9587 256° West  Level FlightAware Approximate
Thu 10:10:00 AM 66.4822 -29.2413 256° West  Level FlightAware Approximate
Thu 10:11:00 AM 66.4537 -29.5232 256° West  Level FlightAware Approximate
Thu 10:12:00 AM 66.4247 -29.8045 256° West  Level FlightAware Approximate
Thu 10:13:00 AM 66.3952 -30.0851 255° West  Level FlightAware Approximate
Thu 10:14:00 AM 66.3652 -30.3650 255° West  Level FlightAware Approximate
Thu 10:15:00 AM 66.3347 -30.6443 255° West  Level FlightAware Approximate
Thu 10:16:00 AM 66.3038 -30.9229 255° West  Level FlightAware Approximate
Thu 10:17:00 AM 66.2723 -31.2008 254° West  Level FlightAware Approximate
Thu 10:18:00 AM 66.2403 -31.4780 254° West  Level FlightAware Approximate
Thu 10:19:00 AM 66.2078 -31.7545 254° West  Level FlightAware Approximate
Thu 10:20:00 AM 66.1748 -32.0303 254° West  Level FlightAware Approximate
Thu 10:21:00 AM 66.1414 -32.3054 253° West  Level FlightAware Approximate
Thu 10:22:00 AM 66.1074 -32.5797 253° West  Level FlightAware Approximate
Thu 10:23:00 AM 66.0730 -32.8533 253° West  Level FlightAware Approximate
Thu 10:24:00 AM 66.0381 -33.1261 253° West  Level FlightAware Approximate
Thu 10:25:00 AM 66.0027 -33.3983 252° West  Level FlightAware Approximate
Thu 10:26:00 AM 65.9668 -33.6696 252° West  Level FlightAware Approximate
Thu 10:27:00 AM 65.9305 -33.9402 252° West  Level FlightAware Approximate
Thu 10:28:00 AM 65.8936 -34.2099 252° West  Level FlightAware Approximate
Thu 10:29:00 AM 65.8564 -34.4790 251° West  Level FlightAware Approximate
Thu 10:30:00 AM 65.8186 -34.7472 251° West  Level FlightAware Approximate
Thu 10:31:00 AM 65.7803 -35.0146 251° West  Level FlightAware Approximate
Thu 10:32:00 AM 65.7417 -35.2813 251° West  Level FlightAware Approximate
Thu 10:33:00 AM 65.7025 -35.5471 250° West  Level FlightAware Approximate
Thu 10:34:00 AM 65.6629 -35.8122 250° West  Level FlightAware Approximate
Thu 10:35:00 AM 65.6228 -36.0764 250° West  Level FlightAware Approximate
Thu 10:36:00 AM 65.5822 -36.3398 250° West  Level FlightAware Approximate
Thu 10:37:00 AM 65.5413 -36.6024 249° West  Level FlightAware Approximate
Thu 10:38:00 AM 65.4998 -36.8641 249° West  Level FlightAware Approximate
Thu 10:39:00 AM 65.4579 -37.1250 249° West  Level FlightAware Approximate
Thu 10:40:00 AM 65.4156 -37.3851 249° West  Level FlightAware Approximate
Thu 10:41:00 AM 65.3728 -37.6443 248° West  Level FlightAware Approximate
Thu 10:42:00 AM 65.3295 -37.9027 248° West  Level FlightAware Approximate
Thu 10:43:00 AM 65.2859 -38.1602 248° West  Level FlightAware Approximate
Thu 10:44:00 AM 65.2418 -38.4169 248° West  Level FlightAware Approximate
Thu 10:45:00 AM 65.1972 -38.6727 248° West  Level FlightAware Approximate
Thu 10:46:00 AM 65.1522 -38.9277 247° West  Level FlightAware Approximate
Thu 10:47:00 AM 65.1068 -39.1818 247° West  Level FlightAware Approximate
Thu 10:48:00 AM 65.0610 -39.4350 247° West  Level FlightAware Approximate
Thu 10:49:00 AM 65.0147 -39.6873 247° West  Level FlightAware Approximate
Thu 10:50:00 AM 64.9680 -39.9388 246° West  Level FlightAware Approximate
Thu 10:51:00 AM 64.9209 -40.1894 246° West  Level FlightAware Approximate
Thu 10:52:00 AM 64.8734 -40.4391 246° West  Level FlightAware Approximate
Thu 10:53:00 AM 64.8254 -40.6879 246° West  Level FlightAware Approximate
Thu 10:54:00 AM 64.7771 -40.9358 245° Southwest  Level FlightAware Approximate
Thu 10:55:00 AM 64.7283 -41.1828 245° Southwest  Level FlightAware Approximate
Thu 10:56:00 AM 64.6791 -41.4290 245° Southwest  Level FlightAware Approximate
Thu 10:57:00 AM 64.6295 -41.6742 245° Southwest  Level FlightAware Approximate
Thu 10:58:00 AM 64.5795 -41.9186 245° Southwest  Level FlightAware Approximate
Thu 10:59:00 AM 64.5291 -42.1620 244° Southwest  Level FlightAware Approximate
Thu 11:00:00 AM 64.4783 -42.4046 244° Southwest  Level FlightAware Approximate
Thu 11:01:00 AM 64.4271 -42.6462 244° Southwest  Level FlightAware Approximate
Thu 11:02:00 AM 64.3755 -42.8870 244° Southwest  Level FlightAware Approximate
Thu 11:03:00 AM 64.3235 -43.1268 244° Southwest  Level FlightAware Approximate
Thu 11:04:00 AM 64.2712 -43.3657 243° Southwest  Level FlightAware Approximate
Thu 11:05:00 AM 64.2184 -43.6038 243° Southwest  Level FlightAware Approximate
Thu 11:06:00 AM 64.1653 -43.8409 243° Southwest  Level FlightAware Approximate
Thu 11:07:00 AM 64.1117 -44.0771 243° Southwest  Level FlightAware Approximate
Thu 11:08:00 AM 64.0578 -44.3124 242° Southwest  Level FlightAware Approximate
Thu 11:09:00 AM 64.0035 -44.5467 242° Southwest  Level FlightAware Approximate
Thu 11:10:00 AM 63.9488 -44.7802 242° Southwest  Level FlightAware Approximate
Thu 11:11:00 AM 63.8938 -45.0128 242° Southwest  Level FlightAware Approximate
Thu 11:12:00 AM 63.8384 -45.2444 242° Southwest  Level FlightAware Approximate
Thu 11:13:00 AM 63.7826 -45.4752 241° Southwest  Level FlightAware Approximate
Thu 11:14:00 AM 63.7265 -45.7050 241° Southwest  Level FlightAware Approximate
Thu 11:15:00 AM 63.6699 -45.9339 241° Southwest  Level FlightAware Approximate
Thu 11:16:00 AM 63.6131 -46.1619 241° Southwest  Level FlightAware Approximate
Thu 11:17:00 AM 63.5558 -46.3889 241° Southwest  Level FlightAware Approximate
Thu 11:18:00 AM 63.4982 -46.6151 240° Southwest  Level FlightAware Approximate
Thu 11:19:00 AM 63.4403 -46.8403 240° Southwest  Level FlightAware Approximate
Thu 11:20:00 AM 63.3820 -47.0647 240° Southwest  Level FlightAware Approximate
Thu 11:21:00 AM 63.3233 -47.2881 240° Southwest  Level FlightAware Approximate
Thu 11:22:00 AM 63.2643 -47.5106 240° Southwest  Level FlightAware Approximate
Thu 11:23:00 AM 63.2050 -47.7322 239° Southwest  Level FlightAware Approximate
Thu 11:24:00 AM 63.1453 -47.9529 239° Southwest  Level FlightAware Approximate
Thu 11:25:00 AM 63.0853 -48.1727 239° Southwest  Level FlightAware Approximate
Thu 11:26:00 AM 63.0249 -48.3916 239° Southwest  Level FlightAware Approximate
Thu 11:27:00 AM 62.9642 -48.6095 239° Southwest  Level FlightAware Approximate
Thu 11:28:00 AM 62.9031 -48.8266 238° Southwest  Level FlightAware Approximate
Thu 11:29:00 AM 62.8418 -49.0428 238° Southwest  Level FlightAware Approximate
Thu 11:30:00 AM 62.7801 -49.2580 238° Southwest  Level FlightAware Approximate
Thu 11:31:00 AM 62.7180 -49.4724 238° Southwest  Level FlightAware Approximate
Thu 11:32:00 AM 62.6557 -49.6858 238° Southwest  Level FlightAware Approximate
Thu 11:33:00 AM 62.5930 -49.8984 237° Southwest  Level FlightAware Approximate
Thu 11:34:00 AM 62.5300 -50.1100 237° Southwest  Level FlightAware Approximate
Thu 11:35:00 AM 62.4667 -50.3208 237° Southwest  Level FlightAware Approximate
Thu 11:36:00 AM 62.4031 -50.5307 237° Southwest  Level FlightAware Approximate
Thu 11:37:00 AM 62.3391 -50.7397 237° Southwest  Level FlightAware Approximate
Thu 11:38:00 AM 62.2748 -50.9477 236° Southwest  Level FlightAware Approximate
Thu 11:39:00 AM 62.2103 -51.1549 236° Southwest  Level FlightAware Approximate
Thu 11:40:00 AM 62.1454 -51.3613 236° Southwest  Level FlightAware Approximate
Thu 11:41:00 AM 62.0802 -51.5667 236° Southwest  Level FlightAware Approximate
Thu 11:42:00 AM 62.0147 -51.7712 236° Southwest  Level FlightAware Approximate
Thu 11:43:00 AM 61.9489 -51.9749 236° Southwest  Level FlightAware Approximate
Thu 11:44:00 AM 61.8829 -52.1777 235° Southwest  Level FlightAware Approximate
Thu 11:45:00 AM 61.8165 -52.3796 235° Southwest  Level FlightAware Approximate
Thu 11:46:00 AM 61.7498 -52.5806 235° Southwest  Level FlightAware Approximate
Thu 11:47:00 AM 61.6828 -52.7808 235° Southwest  Level FlightAware Approximate
Thu 11:48:00 AM 61.6156 -52.9801 235° Southwest  Level FlightAware Approximate
Thu 11:49:00 AM 61.5480 -53.1785 235° Southwest  Level FlightAware Approximate
Thu 11:50:00 AM 61.4802 -53.3761 234° Southwest  Level FlightAware Approximate
Thu 11:51:00 AM 61.4120 -53.5728 234° Southwest  Level FlightAware Approximate
Thu 11:52:00 AM 61.3436 -53.7686 234° Southwest  Level FlightAware Approximate
Thu 11:53:00 AM 61.2749 -53.9636 234° Southwest  Level FlightAware Approximate
Thu 11:54:00 AM 61.2060 -54.1578 234° Southwest  Level FlightAware Approximate
Thu 11:55:00 AM 61.1367 -54.3511 233° Southwest  Level FlightAware Approximate
Thu 11:56:00 AM 61.0672 -54.5435 233° Southwest  Level FlightAware Approximate
Thu 11:57:00 AM 60.9974 -54.7351 233° Southwest  Level FlightAware Approximate
Thu 11:58:00 AM 60.9274 -54.9259 233° Southwest  Level FlightAware Approximate
Thu 11:59:00 AM 60.8322 -55.0840 219° Southwest  Level Estimated
Thu 12:00:00 PM 60.7369 -55.2412 219° Southwest  Level Estimated
Thu 12:00:11 PM 64.5000 -58.1833 218° Southwest 450 518 34,000  Level Gander Center
Thu 12:01:00 PM 60.6414 -55.3974 219° Southwest  Level Estimated
Thu 12:01:11 PM 64.4167 -58.4167 230° Southwest 450 518 34,000  Level Gander Center
Thu 12:02:00 PM 60.5457 -55.5527 219° Southwest  Level Estimated
Thu 12:02:11 PM 64.3333 -58.6167 226° Southwest 460 529 34,000  Level Gander Center
Thu 12:03:00 PM 60.4498 -55.7071 218° Southwest  Level Estimated
Thu 12:03:11 PM 64.2333 -58.8167 221° Southwest 490 564 34,000  Level Gander Center
Thu 12:04:00 PM 60.3538 -55.8606 218° Southwest  Level Estimated
Thu 12:04:11 PM 64.1667 -59.0000 230° Southwest 480 552 34,000  Level Gander Center
Thu 12:05:00 PM 60.2576 -56.0132 218° Southwest  Level Estimated
Thu 12:05:11 PM 64.0667 -59.2000 221° Southwest 460 529 34,000  Level Gander Center
Thu 12:06:11 PM 63.9667 -59.4000 221° Southwest 450 518 34,000  Level Gander Center
Thu 12:07:11 PM 63.8833 -59.6000 227° Southwest 450 518 34,000  Level Gander Center
Thu 12:08:11 PM 63.7833 -59.7500 214° Southwest 450 518 34,000  Level Gander Center
Thu 12:09:11 PM 63.7000 -59.9333 224° Southwest 450 518 34,000  Level Gander Center
Thu 12:10:11 PM 63.6167 -60.1333 227° Southwest 450 518 34,000  Level Gander Center
Thu 12:11:11 PM 63.5167 -60.2833 214° Southwest 440 506 34,000  Level Gander Center
Thu 12:12:11 PM 63.4167 -60.4667 219° Southwest 440 506 34,000  Level Gander Center
Thu 12:13:11 PM 63.3167 -60.6500 219° Southwest 440 506 34,000  Level Gander Center
Thu 12:14:11 PM 63.2167 -60.8000 214° Southwest 450 518 34,000  Level Gander Center
Thu 12:15:11 PM 63.1333 -60.9833 225° Southwest 450 518 34,000  Level Gander Center
Thu 12:16:11 PM 63.0333 -61.1667 220° Southwest 450 518 34,000  Level Gander Center
Thu 12:17:11 PM 62.9333 -61.3500 220° Southwest 450 518 34,000  Level Gander Center
Thu 12:18:11 PM 62.8333 -61.5000 214° Southwest 450 518 34,000  Level Gander Center
Thu 12:19:11 PM 62.7500 -61.6833 225° Southwest 450 518 34,000  Level Gander Center
Thu 12:20:11 PM 62.6500 -61.8667 220° Southwest 450 518 34,000  Level Gander Center
Thu 12:21:11 PM 62.5500 -62.0333 218° Southwest 450 518 34,000  Level Gander Center
Thu 12:22:11 PM 62.4500 -62.2167 220° Southwest 450 518 34,000  Level Gander Center
Thu 12:23:11 PM 62.3500 -62.3833 218° Southwest 450 518 34,000  Level Gander Center
Thu 12:24:10 PM 62.2500 -62.5333 215° Southwest 450 518 34,000  Level Gander Center
Thu 12:25:10 PM 62.1667 -62.7000 223° Southwest 450 518 34,000  Level Gander Center
Thu 12:26:10 PM 62.0667 -62.8667 218° Southwest 450 518 34,000  Level Gander Center
Thu 12:27:10 PM 61.9667 -63.0500 221° Southwest 450 518 34,000  Level Gander Center
Thu 12:28:10 PM 61.8667 -63.2167 218° Southwest 440 506 34,000  Level Gander Center
Thu 12:29:10 PM 61.7667 -63.3500 212° Southwest 450 518 34,000  Level Gander Center
Thu 12:30:10 PM 61.6833 -63.5167 224° Southwest 450 518 34,000  Level Gander Center
Thu 12:31:10 PM 61.5833 -63.6833 218° Southwest 450 518 34,000  Level Gander Center
Thu 12:32:10 PM 61.4667 -63.8167 209° Southwest 440 506 34,000  Level Gander Center
Thu 12:33:10 PM 61.3833 -63.9833 224° Southwest 440 506 34,000  Level Gander Center
Thu 12:34:10 PM 61.2833 -64.1500 219° Southwest 450 518 34,000  Level Gander Center
Thu 12:35:10 PM 61.2000 -64.2833 218° Southwest 440 506 34,000  Level Gander Center
Thu 12:36:10 PM 61.1000 -64.4500 219° Southwest 450 518 34,000  Level Gander Center
Thu 12:37:10 PM 61.0000 -64.6000 216° Southwest 440 506 34,000  Level Gander Center
Thu 12:38:10 PM 60.8833 -64.7333 209° Southwest 440 506 34,000  Level Gander Center
Thu 12:39:10 PM 60.8000 -64.9000 224° Southwest 440 506 34,000  Level Gander Center
Thu 12:40:10 PM 60.7000 -65.0500 216° Southwest 440 506 34,000  Level Gander Center
Thu 12:41:10 PM 60.6000 -65.1833 213° Southwest 440 506 34,000  Level Gander Center
Thu 12:42:10 PM 60.4833 -65.3333 212° Southwest 440 506 34,000  Level Gander Center
Thu 12:43:11 PM 60.3833 -65.4833 217° Southwest 440 506 34,000  Level Gander Center
Thu 12:44:10 PM 60.3000 -65.6500 225° Southwest 450 518 34,000  Level Gander Center
Thu 12:45:10 PM 60.2000 -65.7667 210° Southwest 450 518 34,000  Level Gander Center
Thu 12:46:10 PM 60.0833 -65.9167 213° Southwest 440 506 34,000  Level Gander Center
Thu 12:47:10 PM 60.0000 -66.0333 215° Southwest 440 506 34,000  Level Gander Center
Thu 12:48:10 PM 59.9000 -66.2000 220° Southwest 440 506 34,000  Level Gander Center
Thu 12:49:10 PM 59.7833 -66.3500 213° Southwest 440 506 34,000  Level Gander Center
Thu 12:50:10 PM 59.7000 -66.4667 215° Southwest 440 506 34,000  Level Gander Center
Thu 12:51:10 PM 59.6000 -66.6167 217° Southwest 440 506 34,000  Level Gander Center
Thu 12:52:10 PM 59.5000 -66.7667 217° Southwest 440 506 34,000  Level Gander Center
Thu 12:53:09 PM 59.4000 -66.8333 199° South 440 506 34,000  Level Montreal Center
Thu 12:54:10 PM 59.3000 -66.9667 214° Southwest 430 495 34,000  Level Montreal Center
Thu 12:55:10 PM 59.1833 -67.1667 221° Southwest 440 506 34,000  Level Gander Center
Thu 12:56:10 PM 59.0833 -67.2833 211° Southwest 440 506 34,000  Level Gander Center
Thu 12:57:10 PM 59.0000 -67.4333 223° Southwest 440 506 34,000  Level Gander Center
Thu 12:58:10 PM 58.8833 -67.5667 211° Southwest 450 518 34,000  Level Gander Center
Thu 12:59:10 PM 58.7833 -67.6833 211° Southwest 440 506 34,000  Level Gander Center
Thu 01:00:10 PM 58.6833 -67.8333 218° Southwest 440 506 34,000  Level Gander Center
Thu 01:01:10 PM 58.5833 -67.9667 215° Southwest 440 506 34,000  Level Gander Center
Thu 01:02:10 PM 58.4833 -68.0833 211° Southwest 440 506 34,000  Level Gander Center
Thu 01:03:10 PM 58.3667 -68.2167 211° Southwest 440 506 34,000  Level Gander Center
Thu 01:04:10 PM 58.2833 -68.3333 216° Southwest 450 518 34,000  Level Gander Center
Thu 01:05:10 PM 58.1667 -68.4667 211° Southwest 460 529 34,000  Level Gander Center
Thu 01:06:24 PM 58.0500 -68.6333 217° Southwest 450 518 34,000  Level Gander Center
Thu 01:07:24 PM 57.9500 -68.7333 208° Southwest 450 518 34,000  Level Gander Center
Thu 01:08:24 PM 57.8333 -68.8667 211° Southwest 450 518 34,000  Level Gander Center
Thu 01:09:24 PM 57.7500 -69.0167 224° Southwest 450 518 34,000  Level Gander Center
Thu 01:10:24 PM 57.6333 -69.1167 205° Southwest 440 506 34,000  Level Gander Center
Thu 01:11:24 PM 57.5333 -69.2500 216° Southwest 440 506 34,000  Level Gander Center
Thu 01:12:24 PM 57.4333 -69.3833 216° Southwest 440 506 34,000  Level Gander Center
Thu 01:13:24 PM 57.3333 -69.4833 208° Southwest 440 506 34,000  Level Gander Center
Thu 01:14:24 PM 57.2167 -69.6167 212° Southwest 440 506 34,000  Level Gander Center
Thu 01:15:24 PM 57.1333 -69.7167 213° Southwest 440 506 34,000  Level Gander Center
Thu 01:16:24 PM 57.0167 -69.8500 212° Southwest 440 506 34,000  Level Gander Center
Thu 01:17:24 PM 56.9167 -69.9833 216° Southwest 440 506 34,000  Level Gander Center
Thu 01:18:24 PM 56.8000 -70.1000 209° Southwest 440 506 34,000  Level Gander Center
Thu 01:19:24 PM 56.7167 -70.2000 213° Southwest 440 506 34,000  Level Gander Center
Thu 01:20:24 PM 56.6000 -70.3333 212° Southwest 440 506 34,000  Level Gander Center
Thu 01:21:24 PM 56.5000 -70.4333 209° Southwest 440 506 34,000  Level Gander Center
Thu 01:22:24 PM 56.4000 -70.5667 216° Southwest 440 506 34,000  Level Gander Center
Thu 01:23:24 PM 56.3000 -70.6500 205° Southwest 440 506 34,000  Level Gander Center
Thu 01:24:24 PM 56.1833 -70.7833 212° Southwest 440 506 34,000  Level Gander Center
Thu 01:25:33 PM 56.0667 -70.8667 202° Southwest 440 506 34,000  Level Montreal Center
Thu 01:26:33 PM 55.9667 -70.9667 209° Southwest 440 506 34,000  Level Montreal Center
Thu 01:27:33 PM 55.8500 -71.1000 213° Southwest 450 518 34,000  Level Montreal Center
Thu 01:28:33 PM 55.7333 -71.2000 206° Southwest 440 506 34,000  Level Montreal Center
Thu 01:29:33 PM 55.6500 -71.3000 214° Southwest 440 506 34,000  Level Montreal Center
Thu 01:30:33 PM 55.5333 -71.4333 213° Southwest 440 506 34,000  Level Montreal Center
Thu 01:31:33 PM 55.4333 -71.5333 210° Southwest 440 506 34,000  Level Montreal Center
Thu 01:32:33 PM 55.3167 -71.6333 206° Southwest 440 506 34,000  Level Montreal Center
Thu 01:33:33 PM 55.2167 -71.7667 217° Southwest 450 518 34,000  Level Montreal Center
Thu 01:34:33 PM 55.1000 -71.8667 206° Southwest 450 518 34,000  Level Montreal Center
Thu 01:35:33 PM 55.0000 -71.9667 210° Southwest 440 506 34,000  Level Montreal Center
Thu 01:36:33 PM 54.9000 -72.1000 217° Southwest 440 506 34,000  Level Montreal Center
Thu 01:37:33 PM 54.7833 -72.2000 206° Southwest 440 506 34,000  Level Montreal Center
Thu 01:38:33 PM 54.6833 -72.3167 214° Southwest 440 506 34,000  Level Montreal Center
Thu 01:39:33 PM 54.5667 -72.4167 206° Southwest 450 518 34,000  Level Montreal Center
Thu 01:40:33 PM 54.4667 -72.5167 210° Southwest 440 506 34,000  Level Montreal Center
Thu 01:41:33 PM 54.3500 -72.6333 210° Southwest 440 506 34,000  Level Montreal Center
Thu 01:42:33 PM 54.2333 -72.7333 207° Southwest 450 518 34,000  Level Montreal Center
Thu 01:43:33 PM 54.1333 -72.8333 210° Southwest 450 518 34,000  Level Montreal Center
Thu 01:44:33 PM 54.0333 -72.9500 214° Southwest 450 518 34,000  Level Montreal Center
Thu 01:45:33 PM 53.9333 -73.0500 210° Southwest 450 518 34,000  Level Montreal Center
Thu 01:46:33 PM 53.8167 -73.1667 211° Southwest 450 518 34,000  Level Montreal Center
Thu 01:47:33 PM 53.7000 -73.2667 207° Southwest 450 518 34,000  Level Montreal Center
Thu 01:48:33 PM 53.6000 -73.3500 206° Southwest 450 518 34,000  Level Montreal Center
Thu 01:49:33 PM 53.4833 -73.4667 211° Southwest 450 518 34,000  Level Montreal Center
Thu 01:50:33 PM 53.3667 -73.5667 207° Southwest 450 518 34,000  Level Montreal Center
Thu 01:51:33 PM 53.2500 -73.6833 211° Southwest 450 518 34,000  Level Montreal Center
Thu 01:52:33 PM 53.1500 -73.7667 207° Southwest 450 518 34,000  Level Montreal Center
Thu 01:53:33 PM 53.0333 -73.9000 215° Southwest 450 518 34,000  Level Montreal Center
Thu 01:54:33 PM 52.9333 -73.9833 207° Southwest 450 518 34,000  Level Montreal Center
Thu 01:55:33 PM 52.8167 -74.0667 203° Southwest 450 518 34,000  Level Montreal Center
Thu 01:56:33 PM 52.7000 -74.1833 211° Southwest 450 518 34,000  Level Montreal Center
Thu 01:57:33 PM 52.5833 -74.2667 203° Southwest 450 518 34,000  Level Montreal Center
Thu 01:58:33 PM 52.4833 -74.3833 215° Southwest 450 518 34,000  Level Montreal Center
Thu 01:59:33 PM 52.3667 -74.4833 208° Southwest 450 518 34,000  Level Montreal Center
Thu 02:00:33 PM 52.2667 -74.5667 207° Southwest 440 506 34,000  Level Montreal Center
Thu 02:01:33 PM 52.1500 -74.6667 208° Southwest 450 518 34,000  Level Montreal Center
Thu 02:02:33 PM 52.0333 -74.7667 208° Southwest 460 529 34,000  Level Montreal Center
Thu 02:03:33 PM 51.9167 -74.8667 208° Southwest 460 529 34,000  Level Montreal Center
Thu 02:04:33 PM 51.8167 -74.9500 207° Southwest 450 518 34,000  Level Montreal Center
Thu 02:05:33 PM 51.7000 -75.0667 212° Southwest 450 518 34,000  Level Montreal Center
Thu 02:06:33 PM 51.5833 -75.1500 204° Southwest 460 529 34,000  Level Montreal Center
Thu 02:07:33 PM 51.4667 -75.2333 204° Southwest 460 529 34,000  Level Montreal Center
Thu 02:08:33 PM 51.3500 -75.3500 212° Southwest 460 529 34,000  Level Montreal Center
Thu 02:09:33 PM 51.2500 -75.4333 208° Southwest 460 529 34,000  Level Montreal Center
Thu 02:10:33 PM 51.1333 -75.5333 208° Southwest 460 529 34,000  Level Montreal Center
Thu 02:11:33 PM 51.0167 -75.6167 204° Southwest 460 529 34,000  Level Montreal Center
Thu 02:12:33 PM 50.9000 -75.7167 208° Southwest 460 529 34,000  Level Montreal Center
Thu 02:13:33 PM 50.7833 -75.8333 212° Southwest 470 541 34,000  Level Montreal Center
Thu 02:14:33 PM 50.6833 -75.9167 208° Southwest 460 529 34,000  Level Montreal Center
Thu 02:15:33 PM 50.5500 -76.0167 205° Southwest 460 529 34,000  Level Montreal Center
Thu 02:16:33 PM 50.4500 -76.1000 208° Southwest 460 529 34,000  Level Montreal Center
Thu 02:17:33 PM 50.3333 -76.2000 209° Southwest 470 541 34,000  Level Montreal Center
Thu 02:18:33 PM 50.2167 -76.2833 205° Southwest 470 541 34,000  Level Montreal Center
Thu 02:19:33 PM 50.1000 -76.3833 209° Southwest 470 541 34,000  Level Montreal Center
Thu 02:20:33 PM 49.9667 -76.4667 202° Southwest 470 541 34,000  Level Montreal Center
Thu 02:21:33 PM 49.8500 -76.5667 209° Southwest 470 541 34,000  Level Montreal Center
Thu 02:22:33 PM 49.7333 -76.6500 205° Southwest 470 541 34,000  Level Montreal Center
Thu 02:23:33 PM 49.6167 -76.7500 209° Southwest 470 541 34,000  Level Montreal Center
Thu 02:24:33 PM 49.5000 -76.8500 209° Southwest 460 529 34,000  Level Montreal Center
Thu 02:25:33 PM 49.3833 -76.9167 200° South 500 575 34,000  Level Montreal Center
Thu 02:26:33 PM 49.2667 -77.0167 209° Southwest 460 529 34,000  Level Montreal Center
Thu 02:27:33 PM 49.1500 -77.1000 205° Southwest 480 552 34,000  Level Montreal Center
Thu 02:28:33 PM 49.0333 -77.2000 209° Southwest 480 552 34,000  Level Montreal Center
Thu 02:29:33 PM 48.9167 -77.2667 201° Southwest 480 552 34,000  Level Montreal Center
Thu 02:30:33 PM 48.7833 -77.3667 206° Southwest 480 552 34,000  Level Montreal Center
Thu 02:31:33 PM 48.6500 -77.4667 206° Southwest 480 552 34,000  Level Montreal Center
Thu 02:32:33 PM 48.5500 -77.5333 204° Southwest 480 552 34,000  Level Montreal Center
Thu 02:33:33 PM 48.4167 -77.6333 206° Southwest 480 552 34,000  Level Montreal Center
Thu 02:34:33 PM 48.3000 -77.7333 210° Southwest 480 552 34,000  Level Montreal Center
Thu 02:35:33 PM 48.1833 -77.8333 210° Southwest 480 552 34,000  Level Montreal Center
Thu 02:36:33 PM 48.0667 -77.9000 201° Southwest 480 552 34,000  Level Montreal Center
Thu 02:37:33 PM 47.9167 -77.9667 197° South 480 552 34,000  Level Montreal Center
Thu 02:38:33 PM 47.8000 -78.0500 206° Southwest 480 552 34,000  Level Montreal Center
Thu 02:39:33 PM 47.6833 -78.1167 201° Southwest 480 552 34,000  Level Montreal Center
Thu 02:40:33 PM 47.5500 -78.1833 199° South 480 552 34,000  Level Montreal Center
Thu 02:41:33 PM 47.4333 -78.2500 201° Southwest 480 552 34,000  Level Montreal Center
Thu 02:42:33 PM 47.3000 -78.3167 199° South 480 552 34,000  Level Montreal Center
Thu 02:43:33 PM 47.1833 -78.3833 201° Southwest 480 552 34,000  Level Montreal Center
Thu 02:44:33 PM 47.0333 -78.4833 204° Southwest 480 552 34,000  Level Montreal Center
Thu 02:45:33 PM 46.9167 -78.5500 201° Southwest 480 552 34,000  Level Montreal Center
Thu 02:46:21 PM 46.8333 -78.5833 195° South 490 564 34,000  Level Toronto Center
Thu 02:47:21 PM 46.7167 -78.6833 210° Southwest 490 564 34,000  Level Toronto Center
Thu 02:48:21 PM 46.5833 -78.7833 207° Southwest 490 564 34,000  Level Toronto Center
Thu 02:49:21 PM 46.4667 -78.8500 201° Southwest 490 564 34,000  Level Toronto Center
Thu 02:50:21 PM 46.3500 -78.9333 206° Southwest 490 564 34,000  Level Toronto Center
Thu 02:51:21 PM 46.2167 -79.0333 207° Southwest 490 564 34,000  Level Toronto Center
Thu 02:52:21 PM 46.1000 -79.1333 211° Southwest 490 564 34,000  Level Toronto Center
Thu 02:57:49 PM 45.4092 -79.6138 206° Southwest 503 579 34,000  Level FlightAware ADS-B (CYYZ)
Thu 02:58:20 PM 45.3449 -79.6574 206° Southwest 503 579 34,000  Level FlightAware ADS-B (CYYZ)
Thu 02:58:50 PM 45.2823 -79.6997 206° Southwest 505 581 34,000  Level FlightAware ADS-B (CYYZ)
Thu 02:59:20 PM 45.2189 -79.7422 206° Southwest 506 582 34,000  Level FlightAware ADS-B (CYYZ)
Thu 02:59:49 PM 45.1603 -79.7816 206° Southwest 507 583 34,000  Level FlightAware ADS-B (CYYZ)
Thu 03:00:02 PM 45.6028 -79.4821 206° Southwest 503 579 34,000  Level FlightAware ADS-B
Thu 03:00:19 PM 45.0934 -79.8263 206° Southwest 508 585 34,000  Level FlightAware ADS-B (CYYZ)
Thu 03:00:50 PM 45.0285 -79.8698 206° Southwest 507 583 34,000  Level FlightAware ADS-B (CYYZ)
Thu 03:01:19 PM 44.9658 -79.9115 206° Southwest 507 583 34,000  Level FlightAware ADS-B (CYYZ)
Thu 03:01:50 PM 44.9029 -79.9531 206° Southwest 509 586 34,000  Level FlightAware ADS-B (CYYZ)
Thu 03:02:19 PM 44.8382 -79.9964 206° Southwest 510 587 34,000  Level FlightAware ADS-B (CYYZ)
Thu 03:02:49 PM 44.7741 -80.0388 206° Southwest 510 587 34,000  Level FlightAware ADS-B (CYYZ)
Thu 03:03:19 PM 44.7104 -80.0808 206° Southwest 510 587 34,000  Level FlightAware ADS-B (CYYZ)
Thu 03:03:50 PM 44.6458 -80.1232 206° Southwest 510 587 34,000  Level FlightAware ADS-B (CYYZ)
Thu 03:04:19 PM 44.5831 -80.1644 206° Southwest 509 586 34,000  Level FlightAware ADS-B (CYYZ)
Thu 03:04:26 PM 44.5726 -80.1713 205° Southwest 509 586 34,000  Level FlightAware ADS-B (CYKF)
Thu 03:04:49 PM 44.5212 -80.2050 206° Southwest 511 588 34,000  Level FlightAware ADS-B (CYYZ)
Thu 03:05:19 PM 44.4552 -80.2481 206° Southwest 511 588 34,000  Level FlightAware ADS-B (CYYZ)
Thu 03:05:50 PM 44.3900 -80.2906 206° Southwest 512 589 34,000  Level FlightAware ADS-B (CYYZ)
Thu 03:06:20 PM 44.3262 -80.3320 205° Southwest 511 588 34,000  Level FlightAware ADS-B (CYYZ)
Thu 03:06:49 PM 44.2625 -80.3732 205° Southwest 514 592 34,000  Level FlightAware ADS-B (CYYZ)
Thu 03:07:19 PM 44.1973 -80.4154 205° Southwest 516 594 34,000  Level FlightAware ADS-B (CYYZ)
Thu 03:07:29 PM 44.1762 -80.4291 205° Southwest 516 594 34,000  Level FlightAware ADS-B (CYKF)
Thu 03:07:50 PM 44.1319 -80.4577 206° Southwest 517 595 34,000  Level FlightAware ADS-B (CYYZ)
Thu 03:08:20 PM 44.0671 -80.4995 205° Southwest 518 596 34,000  Level FlightAware ADS-B (CYYZ)
Thu 03:08:27 PM 44.0514 -80.5095 205° Southwest 517 595 34,000  Level FlightAware ADS-B (CYKF)
Thu 03:08:49 PM 44.0079 -80.5375 205° Southwest 518 596 34,000  Level FlightAware ADS-B (CYYZ)
Thu 03:09:19 PM 43.9376 -80.5826 205° Southwest 518 596 34,000  Level FlightAware ADS-B (CYYZ)
Thu 03:09:26 PM 43.9232 -80.5918 205° Southwest 517 595 34,000  Level FlightAware ADS-B (CYKF)
Thu 03:09:50 PM 43.8733 -80.6237 205° Southwest 518 596 34,000  Level FlightAware ADS-B (CYYZ)
Thu 03:10:18 PM 43.8266 -80.6536 205° Southwest 518 596 34,000  Level FlightAware ADS-B (CYYZ)
Thu 03:10:29 PM 43.7882 -80.6780 205° Southwest 517 595 34,000  Level FlightAware ADS-B (CYKF)
Thu 03:10:44 PM 43.7534 -80.7002 205° Southwest 519 597 34,000  Level FlightAware ADS-B (CYYZ)
Thu 03:11:20 PM 43.6880 -80.7418 205° Southwest 518 596 34,000  Level FlightAware ADS-B (CYYZ)
Thu 03:11:21 PM 43.6727 -80.7515 205° Southwest 517 595 34,000  Level FlightAware ADS-B (CYKF)
Thu 03:11:49 PM 43.6116 -80.7901 205° Southwest 517 595 34,000  Level FlightAware ADS-B (CYYZ)
Thu 03:12:19 PM 43.5474 -80.8305 205° Southwest 516 594 34,000  Level FlightAware ADS-B (CYYZ)
Thu 03:12:29 PM 43.6088 -80.7918 205° Southwest 515 593 34,000  Level FlightAware ADS-B (CYKF)
Thu 03:12:49 PM 43.4823 -80.8715 205° Southwest 515 593 34,000  Level FlightAware ADS-B (CYYZ)
Thu 03:13:19 PM 43.4196 -80.9110 205° Southwest 515 593 34,000  Level FlightAware ADS-B (CYYZ)
Thu 03:13:49 PM 43.3533 -80.9525 205° Southwest 515 593 34,000  Level FlightAware ADS-B (CYYZ)
Thu 03:14:20 PM 43.2873 -80.9939 205° Southwest 517 595 34,000  Level FlightAware ADS-B (CYYZ)
Thu 03:14:30 PM 43.2659 -81.0072 205° Southwest 516 594 34,000  Level FlightAware ADS-B (CYKF)
Thu 03:14:50 PM 43.2214 -81.0350 205° Southwest 519 597 34,000  Level FlightAware ADS-B (CYYZ)
Thu 03:15:19 PM 43.1564 -81.0755 205° Southwest 518 596 34,000  Level FlightAware ADS-B (CYYZ)
Thu 03:15:28 PM 43.1452 -81.0824 205° Southwest 516 594 34,000  Level FlightAware ADS-B (CYKF)
Thu 03:15:49 PM 43.0910 -81.1161 205° Southwest 516 594 34,000  Level FlightAware ADS-B (CYYZ)
Thu 03:16:20 PM 43.0262 -81.1563 205° Southwest 516 594 34,000  Level FlightAware ADS-B (CYYZ)
Thu 03:16:28 PM 43.0123 -81.1648 204° Southwest 515 593 34,000  Level FlightAware ADS-B (CYKF)
Thu 03:16:49 PM 42.9629 -81.1955 205° Southwest 515 593 34,000  Level FlightAware ADS-B (CYYZ)
Thu 03:17:20 PM 42.8969 -81.2364 205° Southwest 516 594 34,000  Level FlightAware ADS-B (CYYZ)
Thu 03:17:27 PM 42.8806 -81.2464 204° Southwest 515 593 34,000  Level FlightAware ADS-B (CYKF)
Thu 03:17:50 PM 42.8317 -81.2767 205° Southwest 516 594 34,000  Level FlightAware ADS-B (CYYZ)
Thu 03:18:20 PM 42.7658 -81.3172 205° Southwest 517 595 34,000  Level FlightAware ADS-B (CYYZ)
Thu 03:18:50 PM 42.7009 -81.3570 205° Southwest 517 595 34,000  Level FlightAware ADS-B (CYYZ)
Thu 03:19:20 PM 42.6359 -81.3967 205° Southwest 516 594 34,000  Level FlightAware ADS-B (CYYZ)
Thu 03:19:30 PM 42.6133 -81.4105 204° Southwest 515 593 34,000  Level FlightAware ADS-B (CYKF)
Thu 03:19:50 PM 42.5699 -81.4371 205° Southwest 513 590 34,000  Level FlightAware ADS-B (CYYZ)
Thu 03:20:20 PM 42.5059 -81.4760 205° Southwest 512 589 34,000  Level FlightAware ADS-B (CYYZ)
Thu 03:20:50 PM 42.4419 -81.5148 205° Southwest 514 592 34,000  Level FlightAware ADS-B (CYYZ)
Thu 03:21:19 PM 42.3773 -81.5541 205° Southwest 514 592 34,000  Level FlightAware ADS-B (CYYZ)
Thu 03:21:34 PM 42.3607 -81.5642 205° Southwest 515 593 34,000  Level FlightAware ADS-B (CYYZ)
Thu 03:22:59 PM 42.1771 -81.6588 199° South 519 597 34,000  Level FlightAware ADS-B (CYYZ)
Thu 03:23:29 PM 42.1335 -81.6787 200° South 518 596 34,000  Level FlightAware ADS-B (CYYZ)
Thu 03:24:59 PM 41.8910 -81.7928 200° South 520 598 34,000  Level FlightAware ADS-B (CYYZ)
Thu 03:25:26 PM 41.8470 -81.8134 200° South 518 596 34,000  Level FlightAware ADS-B (CYYZ)
Thu 03:26:07 PM 41.7301 -81.8456 190° South 526 605 34,000  Level FlightAware ADS-B (CYYZ)
Thu 03:26:39 PM 41.6501 -81.8644 191° South 526 605 34,000  Level FlightAware ADS-B (CYYZ)
Thu 03:27:09 PM 41.6328 -81.8686 191° South 527 606 34,000  Level FlightAware ADS-B (CYYZ)
Thu 03:28:20 PM 41.4200 -81.9175 191° South 525 604 34,000  Level Indianapolis Center
Thu 03:29:22 PM 41.2783 -81.9514 190° South 525 604 34,000  Level Indianapolis Center
Thu 03:30:25 PM 41.1350 -81.9858 190° South 525 604 34,000  Level Indianapolis Center
Thu 03:31:27 PM 40.9650 -82.0267 190° South 528 608 34,000  Level Cleveland Center
Thu 03:32:29 PM 40.8194 -82.0600 190° South 528 608 34,000  Level Cleveland Center
Thu 03:33:31 PM 40.6719 -82.0942 190° South 530 610 34,000  Level Cleveland Center
Thu 03:34:33 PM 40.5247 -82.1286 190° South 532 612 34,000 60 Level Indianapolis Center
Thu 03:40:11 PM 39.8596 -82.2807 190° South 523 602 34,400 145 Climbing FlightAware ADS-B
Thu 03:41:27 PM 39.5188 -82.3577 190° South 517 595 35,000 425 Climbing FlightAware ADS-B
Thu 03:42:18 PM 39.3899 -82.3865 190° South 522 601 35,300 444 Climbing FlightAware ADS-B
Thu 03:42:48 PM 39.3348 -82.3987 190° South 520 598 35,600 492 Climbing FlightAware ADS-B
Thu 03:43:19 PM 39.2530 -82.4170 190° South 521 600 35,800 343 Climbing FlightAware ADS-B
Thu 03:43:58 PM 39.1543 -82.4390 190° South 524 603 36,000 160 Climbing FlightAware ADS-B
Thu 03:44:34 PM 39.0678 -82.4582 190° South 525 604 36,000  Level FlightAware ADS-B
Thu 03:45:04 PM 38.9955 -82.4741 190° South 523 602 36,000  Level FlightAware ADS-B
Thu 03:45:36 PM 38.9320 -82.4881 190° South 522 601 36,000  Level FlightAware ADS-B
Thu 03:46:16 PM 38.8220 -82.5123 190° South 520 598 36,000  Level FlightAware ADS-B
Thu 03:46:54 PM 38.7649 -82.5250 190° South 521 600 36,000  Level FlightAware ADS-B
Thu 03:48:00 PM 38.5931 -82.5622 190° South 518 596 36,000  Level Indianapolis Center
Thu 03:49:02 PM 38.4503 -82.5953 190° South 518 596 36,000  Level Indianapolis Center
Thu 03:50:05 PM 38.3081 -82.6264 190° South 518 596 36,000  Level Indianapolis Center
Thu 03:51:07 PM 38.1417 -82.6617 189° South 518 596 36,000  Level Indianapolis Center
Thu 03:52:09 PM 37.9992 -82.6925 190° South 518 596 36,000  Level Indianapolis Center
Thu 03:53:11 PM 37.8569 -82.7244 190° South 518 596 36,000  Level Indianapolis Center
Thu 03:54:13 PM 37.7158 -82.7542 189° South 518 596 36,000  Level Indianapolis Center
Thu 03:55:15 PM 37.5869 -82.8111 199° South 496 571 36,000  Level Indianapolis Center
Thu 03:56:17 PM 37.4500 -82.9033 208° Southwest 481 554 36,000  Level Indianapolis Center
Thu 03:57:19 PM 37.3342 -82.9786 207° Southwest 474 545 36,000  Level Indianapolis Center
Thu 03:58:21 PM 37.2186 -83.0533 207° Southwest 472 543 36,000  Level Indianapolis Center
Thu 03:59:24 PM 37.1036 -83.1272 207° Southwest 471 542 36,000  Level Indianapolis Center
Thu 04:00:26 PM 36.9711 -83.2139 208° Southwest 468 539 36,000  Level Indianapolis Center
Thu 04:01:28 PM 36.8561 -83.2889 208° Southwest 468 539 36,000  Level Indianapolis Center
Thu 04:02:30 PM 36.7403 -83.3628 207° Southwest 468 539 36,000  Level Indianapolis Center
Thu 04:03:32 PM 36.6233 -83.4378 207° Southwest 469 540 36,000  Level Indianapolis Center
Thu 04:04:34 PM 36.4889 -83.5236 207° Southwest 470 541 36,000  Level Indianapolis Center
Thu 04:05:36 PM 36.3742 -83.5969 207° Southwest 467 537 36,000  Level Indianapolis Center
Thu 04:06:38 PM 36.2600 -83.6703 207° Southwest 465 535 36,000  Level Indianapolis Center
Thu 04:07:40 PM 36.1453 -83.7425 207° Southwest 464 534 36,000  Level Indianapolis Center
Thu 04:08:22 PM 36.0683 -83.7947 209° Southwest 462 532 36,000  Level Atlanta Center
Thu 04:14:00 PM 35.2858 -84.0448 191° South 492 566 36,000  Level FlightAware ADS-B (KDZJ)
Thu 04:14:45 PM 35.1842 -84.0693 191° South 493 567 36,000  Level FlightAware ADS-B (KDZJ)
Thu 04:15:25 PM 35.0953 -84.0905 191° South 493 567 36,000  Level FlightAware ADS-B (KDZJ)
Thu 04:16:05 PM 35.0057 -84.1118 191° South 494 568 36,000  Level FlightAware ADS-B (KDZJ)
Thu 04:16:46 PM 34.9142 -84.1339 191° South 491 565 36,000  Level FlightAware ADS-B (KDZJ)
Thu 04:17:24 PM 34.8282 -84.1542 191° South 489 563 36,000  Level FlightAware ADS-B (KDZJ)
Thu 04:17:58 PM 34.7536 -84.1718 191° South 479 551 36,000  Level FlightAware ADS-B (KDZJ)
Thu 04:18:45 PM 34.6505 -84.1964 191° South 478 550 36,000  Level FlightAware ADS-B (KDZJ)
Thu 04:19:21 PM 34.5709 -84.2151 191° South 478 550 36,000  Level FlightAware ADS-B (KDZJ)
Thu 04:20:06 PM 34.4726 -84.2383 191° South 477 549 36,000  Level FlightAware ADS-B (KDZJ)
Thu 04:20:45 PM 34.3856 -84.2588 191° South 474 545 36,000  Level FlightAware ADS-B (KDZJ)
Thu 04:21:26 PM 34.2971 -84.2795 191° South 475 547 36,000  Level FlightAware ADS-B (KDZJ)
Thu 04:22:26 PM 34.1652 -84.3106 191° South 477 549 36,000  Level FlightAware ADS-B (KDZJ)
Thu 04:23:05 PM 34.0783 -84.3309 191° South 476 548 36,000  Level FlightAware ADS-B (KDZJ)
Thu 04:23:43 PM 33.9954 -84.3501 191° South 474 545 36,000  Level FlightAware ADS-B (KDZJ)
Thu 04:24:22 PM 33.9586 -84.3594 191° South 487 560 36,000  Level Atlanta Center
Thu 04:25:22 PM 33.8292 -84.3914 192° South 487 560 36,000  Level Atlanta Center
Thu 04:26:22 PM 33.6978 -84.4233 191° South 487 560 36,000  Level Atlanta Center
Thu 04:27:22 PM 33.5453 -84.4350 184° South 487 560 36,000  Level Atlanta Center
Thu 04:28:22 PM 33.4033 -84.4344 180° South 498 573 36,000  Level Atlanta Center
Thu 04:29:22 PM 33.2781 -84.4339 180° South 505 581 36,000  Level Atlanta Center
Thu 04:30:22 PM 33.1361 -84.4308 179° South 505 581 36,000  Level Atlanta Center
Thu 04:31:22 PM 32.9964 -84.4278 179° South 510 587 36,000 250 Level Atlanta Center
Thu 04:32:22 PM 32.8544 -84.4244 179° South 510 587 36,500 500 Climbing Atlanta Center
Thu 04:33:22 PM 32.7186 -84.4167 177° South 510 587 37,000 250 Climbing Atlanta Center
Thu 04:34:22 PM 32.5850 -84.4136 179° South 498 573 37,000  Level Atlanta Center
Thu 04:35:22 PM 32.4536 -84.4131 180° South 486 559 37,000  Level Atlanta Center
Thu 04:36:22 PM 32.3222 -84.4100 179° South 474 545 37,000  Level Atlanta Center
Thu 04:37:22 PM 32.1906 -84.4069 179° South 474 545 37,000  Level Atlanta Center
Thu 04:38:22 PM 32.0611 -84.4064 180° South 474 545 37,000  Level Atlanta Center
Thu 04:39:42 PM 31.8736 -84.3994 178° South 478 550 37,000  Level Jacksonville Center
Thu 04:40:42 PM 31.7422 -84.4000 180° South 473 544 37,000  Level Jacksonville Center
Thu 04:46:26 PM 30.9833 -84.3822 179° South 470 541 37,000  Level FlightAware ADS-B (KONZ)
Thu 04:47:06 PM 30.8978 -84.3806 179° South 471 542 37,000  Level FlightAware ADS-B (KONZ)
Thu 04:47:41 PM 30.8233 -84.3791 179° South 471 542 37,000  Level FlightAware ADS-B (KONZ)
Thu 04:48:27 PM 30.7200 -84.3767 178° South 472 543 37,000  Level FlightAware ADS-B (KONZ)
Thu 04:49:03 PM 30.6424 -84.3673 172° South 483 556 37,000  Level FlightAware ADS-B (KONZ)
Thu 04:49:44 PM 30.5569 -84.3455 164° South 496 571 37,000  Level FlightAware ADS-B (KONZ)
Thu 04:50:55 PM 30.4032 -84.2730 151° Southeast 511 588 37,000  Level FlightAware ADS-B (KONZ)
Thu 04:51:56 PM 30.2872 -84.1973 151° Southeast 510 587 37,000  Level FlightAware ADS-B (KONZ)
Thu 04:52:26 PM 30.2152 -84.1505 151° Southeast 510 587 37,000  Level FlightAware ADS-B (KONZ)
Thu 04:53:16 PM 30.1056 -84.0792 151° Southeast 510 587 37,000  Level FlightAware ADS-B (KONZ)
Thu 04:53:50 PM 30.0397 -84.0364 151° Southeast 510 587 37,000  Level FlightAware ADS-B (KONZ)
Thu 04:54:25 PM 29.9642 -83.9874 151° Southeast 510 587 37,000  Level FlightAware ADS-B (KONZ)
Thu 04:55:42 PM 29.8136 -83.8908 151° Southeast 507 583 37,000  Level Jacksonville Center
Thu 04:56:42 PM 29.6911 -83.8131 151° Southeast 507 583 37,000  Level Jacksonville Center
Thu 04:57:42 PM 29.5664 -83.7331 151° Southeast 507 583 37,000  Level Jacksonville Center
Thu 04:58:42 PM 29.4542 -83.6631 151° Southeast 507 583 37,000  Level Jacksonville Center
Thu 04:59:42 PM 29.3336 -83.5858 151° Southeast 502 578 37,000  Level Jacksonville Center
Thu 05:00:42 PM 29.2128 -83.5064 150° Southeast 502 578 37,000  Level Jacksonville Center
Thu 05:01:42 PM 29.0922 -83.4297 151° Southeast 497 572 37,000  Level Jacksonville Center
Thu 05:07:18 PM 28.4035 -82.9931 151° Southeast 495 570 37,000  Level FlightAware ADS-B
Thu 05:12:26 PM 27.7884 -82.6075 155° Southeast 493 567 37,000  Level FlightAware ADS-B
Thu 05:13:27 PM 27.6608 -82.5458 157° South 487 560 37,000  Level FlightAware ADS-B
Thu 05:14:06 PM 27.5807 -82.5069 157° South 487 560 37,000  Level FlightAware ADS-B
Thu 05:14:45 PM 27.4989 -82.4671 157° South 489 563 37,000  Level FlightAware ADS-B
Thu 05:16:51 PM 27.2380 -82.3407 157° South 484 557 37,000  Level FlightAware ADS-B
Thu 05:17:25 PM 27.1682 -82.3070 157° South 482 555 37,000  Level FlightAware ADS-B
Thu 05:18:55 PM 26.9808 -82.2168 157° South 485 558 37,000  Level FlightAware ADS-B
Thu 05:19:26 PM 26.9190 -82.1870 157° South 486 559 37,000  Level FlightAware ADS-B
Thu 05:20:28 PM 26.7946 -82.1273 157° South 487 560 37,000  Level FlightAware ADS-B
Thu 05:20:58 PM 26.7276 -82.0952 157° South 488 562 37,000  Level FlightAware ADS-B
Thu 05:21:38 PM 26.6445 -82.0555 157° South 487 560 37,000  Level FlightAware ADS-B
Thu 05:22:18 PM 26.5639 -82.0170 157° South 487 560 37,000  Level FlightAware ADS-B
Thu 05:22:48 PM 26.5023 -81.9876 157° South 487 560 37,000  Level FlightAware ADS-B
Thu 05:23:18 PM 26.4389 -81.9574 157° South 485 558 37,000  Level FlightAware ADS-B
Thu 05:23:56 PM 26.3591 -81.9195 157° South 484 557 37,000  Level FlightAware ADS-B
Thu 05:24:38 PM 26.2719 -81.8781 157° South 481 554 37,000  Level FlightAware ADS-B
Thu 05:25:18 PM 26.1908 -81.8397 157° South 479 551 37,000  Level FlightAware ADS-B
Thu 05:25:48 PM 26.1291 -81.8105 157° South 478 550 37,000  Level FlightAware ADS-B
Thu 05:26:45 PM 26.0233 -81.7600 157° South 475 547 37,000  Level Miami Center
Thu 05:27:45 PM 25.9019 -81.7044 158° South 475 547 37,000  Level Miami Center
Thu 05:28:57 PM 25.7786 -81.6464 157° South 470 541 37,000  Level Miami Center
Thu 05:29:57 PM 25.6447 -81.5881 159° South 470 541 37,000 -100 Level Miami Center
Thu 05:30:57 PM 25.5183 -81.5578 168° South 463 533 36,800 -600 Descending Miami Center
Thu 05:31:57 PM 25.4014 -81.5578 180° South 432 497 35,800 -1,000 Descending Miami Center
Thu 05:32:57 PM 25.2900 -81.5789 190° South 425 489 34,800 -1,000 Descending Miami Center
Thu 05:33:57 PM 25.1883 -81.6253 202° Southwest 408 470 33,800 -1,000 Descending Miami Center
Thu 05:34:57 PM 25.1006 -81.6931 215° Southwest 382 440 32,800 -1,000 Descending Miami Center
Thu 05:35:57 PM 25.0147 -81.7583 215° Southwest 387 445 31,800 -1,000 Descending Miami Center
Thu 05:36:57 PM 24.9228 -81.8256 214° Southwest 393 452 30,800 -1,000 Descending Miami Center
Thu 05:37:57 PM 24.8328 -81.8953 215° Southwest 399 459 29,800 -1,000 Descending Miami Center
Thu 05:38:57 PM 24.7408 -81.9600 213° Southwest 404 465 28,800 -1,000 Descending Miami Center
Thu 05:39:57 PM 24.6550 -82.0275 216° Southwest 399 459 27,800 -1,000 Descending Miami Center
Thu 05:40:57 PM 24.5628 -82.0919 212° Southwest 399 459 26,800 -1,000 Descending Miami Center
Thu 05:41:57 PM 24.4789 -82.1614 217° Southwest 389 448 25,800 -1,000 Descending Miami Center
Thu 05:42:57 PM 24.3911 -82.2239 213° Southwest 389 448 24,800 -1,000 Descending Miami Center
Thu 05:43:57 PM 24.3092 -82.2933 218° Southwest 389 448 23,800 -864 Descending Miami Center
Thu 05:45:09 PM 24.2256 -82.3533 213° Southwest 383 441 22,900 -818 Descending Miami Center
Thu 05:46:09 PM 24.1139 -82.4350 214° Southwest 369 425 22,000 -900 Descending Miami Center
Thu 05:47:09 PM 24.0325 -82.4903 212° Southwest 363 418 21,100 -900 Descending Miami Center
Thu 05:49:00 PM 23.8203 -82.4910 173° South  Level FlightAware Approximate
Thu 05:56:00 PM 22.9891 -82.4091 180° South  Level Estimated
Thu 05:57:00 PM 22.9891 -82.4091 180° South  Level Estimated
Thu 05:58:00 PM 22.9891 -82.4091 180° South  Level Estimated
Thu 05:59:00 PM 22.9891 -82.4091 180° South  Level Estimated
Thu 06:00:00 PM 22.9891 -82.4091 180° South  Level Estimated
Thu 06:01:00 PM 22.9891 -82.4091 180° South  Level Estimated
Thu 06:02:00 PM 22.9891 -82.4091 180° South  Level Estimated
Thu 06:03:00 PM 22.9891 -82.4091 180° South  Level Estimated
Thu 06:04:00 PM 22.9891 -82.4091 180° South  Level Estimated
Thu 06:05:00 PM 22.9891 -82.4091 180° South  Level Estimated
Thu 06:06:00 PM 22.9891 -82.4091 180° South  Level Estimated
Thu 06:07:00 PM 22.9891 -82.4091 180° South  Level Estimated
Thu 06:08:00 PM 22.9891 -82.4091 180° South  Level Estimated
Thu 06:09:00 PM 22.9891 -82.4091 180° South  Level Estimated
Thu 06:10:00 PM 22.9891 -82.4091 180° South  Level Estimated
Thu 06:11:00 PM 22.9891 -82.4091 180° South  Level Estimated
Thu 06:12:00 PM 22.9891 -82.4091 180° South  Level Estimated
Thu 06:13:00 PM 22.9891 -82.4091 180° South  Level Estimated
Thu 06:14:00 PM 22.9891 -82.4091 180° South  Level Estimated
Thu 06:15:00 PM 22.9891 -82.4091 180° South  Level Estimated
Thu 06:16:00 PM 22.9891 -82.4091 180° South  Level Estimated
Thu 06:17:00 PM 22.9891 -82.4091 180° South  Level Estimated
Thu 06:18:00 PM 22.9891 -82.4091 180° South  Level Estimated

Login

Don't have an account? Register now (free) for customized features, flight alerts, and more!